Etusivu
METAR-TAF:

METAR-TAF

Lentoasemat :

Boulder City, Nevada, Yhdysvallat

Leveyspiiri: 35-56-50N, Pituuspiiri: 114-51-37W, korkeus merenpinnasta: 671 m

Tämänhetkinen sää

Tämä raportti tehtiin 12 minuuttia sitten, kello 07.15 UTC
tyyntä
Lämpötila 21°C
Kosteus 26%
Ilmanpaine 1015 hPa
Näkyvyys: 16.1 km
selkeää

METAR: KBVU 210715Z AUTO 00000KT 10SM CLR 21/01 A2996 RMK AO2

Aika: 00:27 (07:27 UTC)


TAF: puuttuu

Säähavainnot ja -ennusteet yli 4000 lentoasemalta (METAR- ja TAF-raportit).

Käytössä olevat sääasemat on merkitty karttaan keltaisilla ja punaisilla pisteillä.

Aseta hiiri pisteen päälle nähdäksesi sääaseman nimen.

Klikkaa sitten nähdäksesi säähavainnot ja -ennusteet.

Kartan vaihtaminen: klikkaa mustalla rastilla varustettuja vihreitä pisteitä, niin voit zoomata sisään; viivalla varustettua vihreää pistettä, niin voit zoomata ulos tai vihreitä nuolia, niin pääset viereisille kartoille.


METAR-TAF: